createdAt,value
2022-12-07T00:01:46.606Z,28.40
2022-12-07T00:04:17.521Z,28.50
2022-12-07T00:06:48.925Z,28.70
2022-12-07T00:09:18.630Z,28.40
2022-12-07T00:11:50.777Z,28.40
2022-12-07T00:14:19.769Z,25.60
2022-12-07T00:16:50.589Z,27.50
2022-12-07T00:19:18.939Z,26.90
2022-12-07T00:21:46.882Z,26.80
2022-12-07T00:24:15.078Z,24.70
2022-12-07T00:26:44.966Z,25.60
2022-12-07T00:29:20.686Z,26.80
2022-12-07T00:31:49.395Z,26.20
2022-12-07T00:34:20.582Z,25.90
2022-12-07T00:36:49.396Z,26.00
2022-12-07T00:39:17.408Z,25.40
2022-12-07T00:41:45.436Z,24.90
2022-12-07T00:44:13.399Z,25.70
2022-12-07T00:46:41.367Z,25.40
2022-12-07T00:49:09.415Z,24.90
2022-12-07T00:51:37.407Z,23.70
2022-12-07T00:54:05.412Z,24.70
2022-12-07T00:56:33.494Z,23.80
2022-12-07T00:59:03.575Z,25.20
2022-12-07T01:01:34.667Z,25.10
2022-12-07T01:04:03.192Z,25.80
2022-12-07T01:06:31.849Z,26.90
2022-12-07T01:09:00.743Z,24.70
2022-12-07T01:11:31.462Z,25.80
2022-12-07T01:14:01.653Z,24.70
2022-12-07T01:16:31.594Z,23.50
2022-12-07T01:19:01.903Z,23.80
2022-12-07T01:21:37.165Z,24.60
2022-12-07T01:24:08.075Z,24.60
2022-12-07T01:26:36.123Z,25.20
2022-12-07T01:29:04.465Z,25.00
2022-12-07T01:31:32.541Z,26.00
2022-12-07T01:34:01.948Z,25.70
2022-12-07T01:36:32.660Z,26.70
2022-12-07T01:39:07.065Z,26.70
2022-12-07T01:41:37.980Z,27.10
2022-12-07T01:44:26.165Z,25.80
2022-12-07T01:47:07.931Z,23.50
2022-12-07T01:49:47.798Z,24.00
2022-12-07T01:52:24.096Z,22.10
2022-12-07T01:54:58.460Z,18.60
2022-12-07T01:57:27.287Z,20.20
2022-12-07T01:59:57.335Z,19.90
2022-12-07T02:02:33.549Z,20.70
2022-12-07T02:05:04.278Z,20.40
2022-12-07T02:07:34.445Z,21.30
2022-12-07T02:10:20.031Z,20.80
2022-12-07T02:13:10.152Z,20.80
2022-12-07T02:15:46.932Z,20.80
2022-12-07T02:18:21.194Z,21.30
2022-12-07T02:21:12.171Z,20.30
2022-12-07T02:24:00.552Z,18.80
2022-12-07T02:26:47.086Z,19.50
2022-12-07T02:29:23.565Z,20.40
2022-12-07T02:32:08.034Z,22.10
2022-12-07T02:35:07.149Z,21.20
2022-12-07T02:38:07.676Z,21.10
2022-12-07T02:40:49.421Z,21.00
2022-12-07T02:43:23.252Z,20.70
2022-12-07T02:45:54.033Z,20.30
2022-12-07T02:48:23.990Z,20.70
2022-12-07T02:50:54.295Z,20.00
2022-12-07T02:53:42.774Z,19.60
2022-12-07T02:56:25.377Z,19.20
2022-12-07T02:59:21.848Z,19.00
2022-12-07T03:01:57.324Z,19.90
2022-12-07T03:04:32.358Z,19.30
2022-12-07T03:07:15.210Z,20.20
2022-12-07T03:09:59.357Z,19.60
2022-12-07T03:12:33.931Z,20.40
2022-12-07T03:15:32.832Z,19.80
2022-12-07T03:18:03.726Z,20.10
2022-12-07T03:20:36.633Z,18.40
2022-12-07T03:23:10.712Z,18.70
2022-12-07T03:25:50.337Z,18.60
2022-12-07T03:28:22.061Z,19.80
2022-12-07T03:31:13.648Z,17.70
2022-12-07T03:33:59.004Z,19.30
2022-12-07T03:36:41.940Z,19.10
2022-12-07T03:39:35.445Z,18.60
2022-12-07T03:42:08.176Z,18.80
2022-12-07T03:44:37.761Z,20.50
2022-12-07T03:47:38.555Z,19.50
2022-12-07T03:50:47.784Z,21.00
2022-12-07T03:53:22.627Z,20.10
2022-12-07T03:55:55.733Z,19.40
2022-12-07T03:58:25.521Z,19.80
2022-12-07T04:00:53.640Z,19.60
2022-12-07T04:03:23.974Z,19.80
2022-12-07T04:05:52.409Z,19.30
2022-12-07T04:08:20.777Z,18.90
2022-12-07T04:10:48.949Z,17.30
2022-12-07T04:13:17.330Z,17.20
2022-12-07T04:15:45.374Z,17.90
2022-12-07T04:18:13.585Z,17.90
2022-12-07T04:20:42.527Z,18.40
2022-12-07T04:23:11.113Z,18.30
2022-12-07T04:25:43.533Z,18.50
2022-12-07T04:28:14.138Z,18.00
2022-12-07T04:30:44.426Z,18.20
2022-12-07T04:33:12.627Z,17.80
2022-12-07T04:35:40.791Z,17.10
2022-12-07T04:38:08.754Z,16.00
2022-12-07T04:40:36.880Z,15.80
2022-12-07T04:43:05.914Z,16.00
2022-12-07T04:45:33.899Z,14.90
2022-12-07T04:48:01.920Z,15.50
2022-12-07T04:50:29.902Z,18.80
2022-12-07T04:52:57.785Z,17.20
2022-12-07T04:55:27.439Z,19.50
2022-12-07T04:57:56.163Z,18.50
2022-12-07T05:00:24.396Z,21.40
2022-12-07T05:02:52.388Z,21.10
2022-12-07T05:05:20.553Z,17.30
2022-12-07T05:07:49.722Z,17.00
2022-12-07T05:10:18.170Z,17.50
2022-12-07T05:12:48.240Z,16.50
2022-12-07T05:15:16.776Z,17.40
2022-12-07T05:17:45.014Z,17.20
2022-12-07T05:20:12.996Z,16.00
2022-12-07T05:22:41.051Z,18.40
2022-12-07T05:25:09.931Z,18.10
2022-12-07T05:27:37.800Z,23.10
2022-12-07T05:30:07.137Z,18.60
2022-12-07T05:32:35.059Z,18.00
2022-12-07T05:35:03.113Z,17.40
2022-12-07T05:37:31.137Z,15.50
2022-12-07T05:40:01.482Z,19.70
2022-12-07T05:42:29.821Z,14.30
2022-12-07T05:44:58.476Z,15.40
2022-12-07T05:47:27.053Z,16.80
2022-12-07T05:49:54.963Z,17.80
2022-12-07T05:52:23.549Z,17.60
2022-12-07T05:54:51.648Z,15.60
2022-12-07T05:57:20.434Z,17.80
2022-12-07T05:59:49.945Z,17.50
2022-12-07T06:02:18.920Z,19.70
2022-12-07T06:04:48.106Z,17.60
2022-12-07T06:07:17.828Z,17.50
2022-12-07T06:09:45.922Z,18.80
2022-12-07T06:12:34.707Z,17.90
2022-12-07T06:15:02.816Z,18.50
2022-12-07T06:17:31.156Z,16.90
2022-12-07T06:20:00.955Z,17.70
2022-12-07T06:22:31.461Z,18.70
2022-12-07T06:25:02.727Z,21.20
2022-12-07T06:27:36.517Z,18.10
2022-12-07T06:30:08.411Z,20.20
2022-12-07T06:32:38.032Z,19.20
2022-12-07T06:35:06.899Z,18.80
2022-12-07T06:37:34.975Z,18.40
2022-12-07T06:40:05.872Z,19.20
2022-12-07T06:42:34.029Z,18.70
2022-12-07T06:45:02.492Z,18.50
2022-12-07T06:47:47.565Z,17.90
2022-12-07T06:50:19.349Z,18.70
2022-12-07T06:52:48.583Z,17.30
2022-12-07T06:55:16.695Z,17.10
2022-12-07T06:57:45.591Z,17.60
2022-12-07T07:00:21.586Z,25.10
2022-12-07T07:02:50.296Z,18.50
2022-12-07T07:05:19.376Z,18.10
2022-12-07T07:08:20.150Z,19.00
2022-12-07T07:10:39.005Z,17.80
2022-12-07T07:13:09.341Z,18.00
2022-12-07T07:15:39.890Z,18.30
2022-12-07T07:18:08.369Z,20.90
2022-12-07T07:20:38.957Z,18.10
2022-12-07T07:23:07.571Z,22.00
2022-12-07T07:25:35.714Z,18.50
2022-12-07T07:28:04.435Z,18.70
2022-12-07T07:30:32.904Z,18.60
2022-12-07T07:33:04.109Z,20.60
2022-12-07T07:35:34.074Z,19.30
2022-12-07T07:38:03.506Z,20.00
2022-12-07T07:40:39.038Z,21.00
2022-12-07T07:43:07.103Z,22.30
2022-12-07T07:45:35.304Z,22.50
2022-12-07T07:48:04.056Z,22.10
2022-12-07T07:50:32.414Z,23.00
2022-12-07T07:53:00.568Z,23.20
2022-12-07T07:55:28.582Z,25.40
2022-12-07T07:57:58.076Z,23.10
2022-12-07T08:00:26.541Z,24.00
2022-12-07T08:02:54.607Z,24.10
2022-12-07T08:05:22.844Z,23.40
2022-12-07T08:07:51.534Z,24.10
2022-12-07T08:10:21.119Z,24.10
2022-12-07T08:13:07.899Z,23.10
2022-12-07T08:15:38.127Z,22.40
2022-12-07T08:18:06.323Z,26.40
2022-12-07T08:20:36.327Z,24.40
2022-12-07T08:23:07.809Z,22.10
2022-12-07T08:25:37.799Z,22.60
2022-12-07T08:28:06.042Z,23.30
2022-12-07T08:30:34.661Z,23.50
2022-12-07T08:33:02.815Z,21.00
2022-12-07T08:35:31.223Z,22.40
2022-12-07T08:37:59.482Z,21.70
2022-12-07T08:40:28.071Z,19.70
2022-12-07T08:42:56.514Z,22.10
2022-12-07T08:45:27.453Z,19.90
2022-12-07T08:48:03.083Z,18.40
2022-12-07T08:50:33.948Z,18.80
2022-12-07T08:53:05.654Z,19.40
2022-12-07T08:55:35.856Z,18.30
2022-12-07T08:58:04.651Z,19.60
2022-12-07T09:00:33.890Z,21.30
2022-12-07T09:03:01.962Z,20.60
2022-12-07T09:05:30.747Z,21.40
2022-12-07T09:08:02.239Z,20.80
2022-12-07T09:10:30.800Z,24.50
2022-12-07T09:13:01.862Z,19.60
2022-12-07T09:15:31.573Z,19.00
2022-12-07T09:17:59.866Z,20.40
2022-12-07T09:20:28.579Z,21.20
2022-12-07T09:22:57.615Z,20.60
2022-12-07T09:25:26.371Z,23.80
2022-12-07T09:27:59.661Z,25.30
2022-12-07T09:30:28.855Z,22.70
2022-12-07T09:32:58.287Z,24.20
2022-12-07T09:35:29.843Z,20.90
2022-12-07T09:37:58.795Z,20.80
2022-12-07T09:40:29.276Z,22.40
2022-12-07T09:42:57.538Z,21.40
2022-12-07T09:45:34.157Z,21.50
2022-12-07T09:48:06.762Z,23.20
2022-12-07T09:50:36.239Z,22.10
2022-12-07T09:53:29.468Z,25.50
2022-12-07T09:55:58.017Z,22.60
2022-12-07T09:58:29.488Z,22.70
2022-12-07T10:01:11.758Z,22.90
2022-12-07T10:03:44.448Z,25.30
2022-12-07T10:06:14.870Z,23.90
2022-12-07T10:08:44.943Z,24.10
2022-12-07T10:11:15.873Z,24.50
2022-12-07T10:13:52.895Z,25.00
2022-12-07T10:16:39.482Z,24.10
2022-12-07T10:19:25.800Z,21.80
2022-12-07T10:22:58.395Z,43.90
2022-12-07T10:26:31.953Z,24.20
2022-12-07T10:29:17.798Z,28.20
2022-12-07T10:31:55.898Z,26.10
2022-12-07T10:34:27.214Z,24.50
2022-12-07T10:37:13.807Z,22.40
2022-12-07T10:39:54.400Z,21.60
2022-12-07T10:42:30.400Z,20.90
2022-12-07T10:48:13.418Z,20.50
2022-12-07T10:50:54.421Z,21.40
2022-12-07T10:53:48.283Z,19.60
2022-12-07T10:56:22.642Z,21.20
2022-12-07T10:59:22.886Z,23.10
2022-12-07T11:02:03.343Z,38.10
2022-12-07T11:04:54.365Z,19.40
2022-12-07T11:07:52.234Z,22.30
2022-12-07T11:10:53.554Z,24.30
2022-12-07T11:13:41.332Z,19.70
2022-12-07T11:16:52.955Z,21.80
2022-12-07T11:19:28.171Z,22.00
2022-12-07T11:22:05.343Z,23.30
2022-12-07T11:24:58.921Z,25.70
2022-12-07T11:27:46.119Z,22.90
2022-12-07T11:30:23.872Z,22.40
2022-12-07T11:32:52.667Z,19.50
2022-12-07T11:35:33.193Z,21.70
2022-12-07T11:38:12.952Z,24.60
2022-12-07T11:40:51.128Z,24.70
2022-12-07T11:43:34.157Z,25.40
2022-12-07T11:46:08.926Z,24.00
2022-12-07T11:48:45.592Z,23.80
2022-12-07T11:51:16.408Z,22.90
2022-12-07T11:53:53.971Z,22.90
2022-12-07T11:56:26.798Z,20.60
2022-12-07T11:59:11.801Z,20.90
2022-12-07T12:02:09.145Z,20.60
2022-12-07T12:04:55.293Z,21.90
2022-12-07T12:10:31.091Z,21.00
2022-12-07T12:16:16.944Z,22.00
2022-12-07T12:19:00.514Z,16.40
2022-12-07T12:21:30.844Z,17.60
2022-12-07T12:24:19.690Z,16.50
2022-12-07T12:26:55.358Z,16.10
2022-12-07T12:29:36.723Z,15.90
2022-12-07T12:32:18.085Z,15.70
2022-12-07T12:34:50.871Z,14.80
2022-12-07T12:37:34.216Z,15.30
2022-12-07T12:40:28.485Z,15.20
2022-12-07T12:43:00.570Z,14.40
2022-12-07T12:45:33.054Z,15.50
2022-12-07T12:48:05.845Z,15.10
2022-12-07T12:50:39.265Z,14.50
2022-12-07T12:53:21.440Z,18.40
2022-12-07T12:56:13.430Z,16.00
2022-12-07T12:58:45.029Z,21.00
2022-12-07T13:01:32.633Z,15.10
2022-12-07T13:04:01.367Z,13.40
2022-12-07T13:06:30.010Z,13.50
2022-12-07T13:09:00.825Z,25.00
2022-12-07T13:11:39.523Z,15.90
2022-12-07T13:14:41.615Z,13.20
2022-12-07T13:17:32.348Z,13.10
2022-12-07T13:20:03.040Z,12.20
2022-12-07T13:22:31.205Z,13.50
2022-12-07T13:25:06.924Z,12.90
2022-12-07T13:27:42.162Z,12.50
2022-12-07T13:30:20.102Z,13.90
2022-12-07T13:32:56.634Z,18.10
2022-12-07T13:35:35.449Z,20.40
2022-12-07T13:38:07.270Z,14.40
2022-12-07T13:40:36.166Z,14.50
2022-12-07T13:43:06.196Z,13.90
2022-12-07T13:45:50.449Z,13.80
2022-12-07T13:48:38.765Z,14.60
2022-12-07T13:51:18.861Z,13.20
2022-12-07T13:53:49.413Z,14.00
2022-12-07T13:56:17.736Z,13.50
2022-12-07T13:58:46.100Z,14.00
2022-12-07T14:01:15.297Z,14.70
2022-12-07T14:03:58.439Z,15.80
2022-12-07T14:06:36.240Z,15.00
2022-12-07T14:09:10.256Z,15.80
2022-12-07T14:11:38.824Z,15.30
2022-12-07T14:14:07.519Z,15.60
2022-12-07T14:16:38.475Z,12.20
2022-12-07T14:19:48.622Z,14.50
2022-12-07T14:22:39.806Z,18.80
2022-12-07T14:25:13.948Z,19.70
2022-12-07T14:27:51.027Z,18.20
2022-12-07T14:30:20.897Z,17.20
2022-12-07T14:33:05.469Z,17.60
2022-12-07T14:35:34.092Z,20.40
2022-12-07T14:38:03.293Z,21.50
2022-12-07T14:40:32.867Z,18.90
2022-12-07T14:43:10.594Z,37.70
2022-12-07T14:45:42.015Z,19.60
2022-12-07T14:54:16.872Z,21.40
2022-12-07T14:56:50.704Z,20.60
2022-12-07T14:59:22.735Z,19.60
2022-12-07T15:01:51.531Z,19.30
2022-12-07T15:04:27.052Z,19.80
2022-12-07T15:07:04.891Z,20.10
2022-12-07T15:09:34.475Z,21.80
2022-12-07T15:12:08.703Z,21.10
2022-12-07T15:14:37.555Z,20.70
2022-12-07T15:17:09.129Z,23.70
2022-12-07T15:19:39.788Z,24.20
2022-12-07T15:22:09.421Z,20.90
2022-12-07T15:24:38.001Z,19.80
2022-12-07T15:27:08.827Z,21.00
2022-12-07T15:29:37.299Z,21.40
2022-12-07T15:32:05.650Z,23.00
2022-12-07T15:34:39.905Z,22.90
2022-12-07T15:37:09.077Z,23.60
2022-12-07T15:39:38.236Z,25.40
2022-12-07T15:42:06.428Z,25.60
2022-12-07T15:44:54.626Z,26.40
2022-12-07T15:47:22.798Z,24.20
2022-12-07T15:49:50.996Z,25.10
2022-12-07T15:52:23.105Z,32.70
2022-12-07T15:54:51.158Z,42.10
2022-12-07T15:57:25.003Z,29.10
2022-12-07T15:59:53.679Z,24.50
2022-12-07T16:02:22.037Z,23.80
2022-12-07T16:04:51.427Z,24.50
2022-12-07T16:07:20.564Z,24.10
2022-12-07T16:09:48.665Z,28.30
2022-12-07T16:12:17.416Z,23.90
2022-12-07T16:14:45.656Z,22.90
2022-12-07T16:17:13.807Z,28.30
2022-12-07T16:19:42.452Z,28.10
2022-12-07T16:22:10.708Z,27.70
2022-12-07T16:24:39.101Z,25.80
2022-12-07T16:27:07.867Z,28.00
2022-12-07T16:29:36.053Z,28.50
2022-12-07T16:32:04.459Z,24.00
2022-12-07T16:34:33.328Z,25.80
2022-12-07T16:37:04.298Z,24.70
2022-12-07T16:39:35.696Z,25.40
2022-12-07T16:42:04.172Z,27.00
2022-12-07T16:44:33.335Z,22.60
2022-12-07T16:47:02.339Z,22.00
2022-12-07T16:49:30.899Z,22.00
2022-12-07T16:54:49.183Z,22.30
2022-12-07T16:57:23.019Z,22.40
2022-12-07T16:59:53.891Z,25.40
2022-12-07T17:02:26.476Z,24.40
2022-12-07T17:04:54.983Z,24.50
2022-12-07T17:07:23.093Z,24.50
2022-12-07T17:09:53.313Z,23.90
2022-12-07T17:12:21.428Z,27.70
2022-12-07T17:15:08.228Z,28.30
2022-12-07T17:17:36.387Z,30.50
2022-12-07T17:20:07.197Z,30.50
2022-12-07T17:22:35.878Z,30.10
2022-12-07T17:25:06.936Z,31.00
2022-12-07T17:27:36.223Z,30.70
2022-12-07T17:30:06.446Z,32.20
2022-12-07T17:32:37.929Z,35.90
2022-12-07T17:35:06.807Z,32.40
2022-12-07T17:37:35.677Z,32.40
2022-12-07T17:40:05.236Z,31.00
2022-12-07T17:42:38.154Z,30.80
2022-12-07T17:45:11.423Z,31.20
2022-12-07T17:47:40.300Z,30.90
2022-12-07T17:50:09.607Z,32.20
2022-12-07T17:52:59.557Z,31.50
2022-12-07T17:55:27.896Z,31.50
2022-12-07T17:57:56.577Z,31.30
2022-12-07T18:00:25.890Z,33.70
2022-12-07T18:02:53.907Z,30.30
2022-12-07T18:05:22.448Z,30.30
2022-12-07T18:07:53.990Z,32.90
2022-12-07T18:10:22.113Z,30.80
2022-12-07T18:12:52.539Z,30.20
2022-12-07T18:15:21.090Z,31.90
2022-12-07T18:17:49.472Z,32.90
2022-12-07T18:20:17.541Z,30.60
2022-12-07T18:22:46.436Z,33.80
2022-12-07T18:25:15.146Z,33.40
2022-12-07T18:27:44.249Z,36.00
2022-12-07T18:30:13.660Z,33.70
2022-12-07T18:32:43.710Z,30.20
2022-12-07T18:35:11.744Z,30.90
2022-12-07T18:37:40.918Z,32.50
2022-12-07T18:40:10.312Z,33.40
2022-12-07T18:42:39.189Z,34.30
2022-12-07T18:45:08.815Z,33.70
2022-12-07T18:47:37.238Z,32.30
2022-12-07T18:50:07.156Z,31.70
2022-12-07T18:52:38.007Z,30.30
2022-12-07T18:55:06.714Z,33.70
2022-12-07T18:57:34.887Z,32.30
2022-12-07T19:00:04.791Z,30.50
2022-12-07T19:02:32.965Z,29.80
2022-12-07T19:05:02.757Z,27.90
2022-12-07T19:07:31.205Z,31.10
2022-12-07T19:09:59.289Z,29.70
2022-12-07T19:12:27.365Z,30.90
2022-12-07T19:14:56.187Z,30.50
2022-12-07T19:17:27.630Z,32.50
2022-12-07T19:19:55.616Z,31.20
2022-12-07T19:22:24.728Z,32.10
2022-12-07T19:24:55.024Z,35.90
2022-12-07T19:27:24.960Z,33.20
2022-12-07T19:29:53.236Z,30.10
2022-12-07T19:32:21.399Z,32.10
2022-12-07T19:34:51.079Z,30.90
2022-12-07T19:37:19.127Z,30.60
2022-12-07T19:39:52.089Z,32.00
2022-12-07T19:42:20.426Z,31.00
2022-12-07T19:44:49.758Z,32.70
2022-12-07T19:47:19.215Z,35.00
2022-12-07T19:49:47.791Z,33.00
2022-12-07T19:52:15.901Z,33.20
2022-12-07T19:54:43.930Z,34.00
2022-12-07T19:57:15.968Z,31.10
2022-12-07T19:59:44.186Z,29.30
2022-12-07T20:02:14.653Z,33.50
2022-12-07T20:04:43.690Z,33.00
2022-12-07T20:07:11.756Z,32.40
2022-12-07T20:09:42.331Z,33.60
2022-12-07T20:12:30.508Z,33.80
2022-12-07T20:14:59.492Z,34.40
2022-12-07T20:17:27.710Z,35.10
2022-12-07T20:19:57.045Z,33.60
2022-12-07T20:22:25.848Z,31.30
2022-12-07T20:24:53.835Z,32.60
2022-12-07T20:27:22.528Z,31.70
2022-12-07T20:29:50.892Z,34.90
2022-12-07T20:32:19.275Z,31.60
2022-12-07T20:34:47.713Z,32.10
2022-12-07T20:37:17.293Z,32.10
2022-12-07T20:39:45.264Z,28.30
2022-12-07T20:42:31.889Z,31.90
2022-12-07T20:45:03.349Z,28.70
2022-12-07T20:47:33.414Z,33.00
2022-12-07T20:50:02.342Z,31.00
2022-12-07T20:52:31.140Z,31.80
2022-12-07T20:54:59.359Z,29.40
2022-12-07T20:57:27.704Z,30.50
2022-12-07T20:59:55.639Z,32.30
2022-12-07T21:02:24.659Z,32.30
2022-12-07T21:04:53.564Z,32.70
2022-12-07T21:07:22.198Z,31.10
2022-12-07T21:09:51.592Z,31.50
2022-12-07T21:12:19.607Z,32.00
2022-12-07T21:14:47.700Z,33.50
2022-12-07T21:17:16.227Z,27.40
2022-12-07T21:19:49.578Z,28.40
2022-12-07T21:22:18.101Z,28.20
2022-12-07T21:24:46.268Z,31.80
2022-12-07T21:27:14.420Z,30.60
2022-12-07T21:29:46.929Z,27.00
2022-12-07T21:32:17.147Z,26.80
2022-12-07T21:34:45.304Z,25.50
2022-12-07T21:37:13.354Z,27.20
2022-12-07T21:39:41.284Z,26.90
2022-12-07T21:42:09.337Z,25.90
2022-12-07T21:44:37.664Z,24.00
2022-12-07T21:47:07.348Z,26.00
2022-12-07T21:49:38.979Z,26.80
2022-12-07T21:52:07.622Z,28.50
2022-12-07T21:54:36.111Z,27.80
2022-12-07T21:57:04.977Z,28.60
2022-12-07T21:59:35.461Z,28.10
2022-12-07T22:02:03.809Z,29.80
2022-12-07T22:04:32.006Z,29.00
2022-12-07T22:07:01.696Z,30.10
2022-12-07T22:09:30.751Z,25.20
2022-12-07T22:11:58.976Z,28.30
2022-12-07T22:14:45.502Z,28.00
2022-12-07T22:17:13.787Z,27.00
2022-12-07T22:19:42.016Z,23.70
2022-12-07T22:22:16.091Z,24.80
2022-12-07T22:24:45.697Z,27.00
2022-12-07T22:27:17.216Z,25.90
2022-12-07T22:29:45.282Z,23.70
2022-12-07T22:32:46.459Z,25.50
2022-12-07T22:35:01.751Z,26.00
2022-12-07T22:37:30.287Z,26.50
2022-12-07T22:39:58.876Z,24.50
2022-12-07T22:42:27.035Z,26.20
2022-12-07T22:44:55.019Z,25.70
2022-12-07T22:47:23.373Z,21.90
2022-12-07T22:49:51.656Z,22.90
2022-12-07T22:52:19.977Z,24.10
2022-12-07T22:54:48.023Z,23.80
2022-12-07T22:57:16.050Z,24.30
2022-12-07T22:59:44.066Z,25.20
2022-12-07T23:02:12.990Z,24.50
2022-12-07T23:04:41.395Z,25.20
2022-12-07T23:07:09.736Z,24.50
2022-12-07T23:09:37.715Z,26.10
2022-12-07T23:12:24.534Z,25.70
2022-12-07T23:14:54.743Z,24.00
2022-12-07T23:17:22.748Z,26.20
2022-12-07T23:19:55.529Z,24.10
2022-12-07T23:22:24.880Z,26.80
2022-12-07T23:24:53.407Z,22.90
2022-12-07T23:27:21.371Z,24.00
2022-12-07T23:29:49.470Z,24.90
2022-12-07T23:32:17.523Z,23.10
2022-12-07T23:34:45.540Z,23.00
2022-12-07T23:37:13.542Z,24.30
2022-12-07T23:39:41.717Z,21.20
2022-12-07T23:42:10.551Z,22.40
2022-12-07T23:44:38.464Z,22.20
2022-12-07T23:47:07.132Z,25.90
2022-12-07T23:49:35.240Z,25.90
2022-12-07T23:52:03.712Z,27.30
2022-12-07T23:54:32.482Z,25.90
2022-12-07T23:57:00.728Z,26.90
2022-12-07T23:59:28.764Z,26.80
